KIMT/IMT METAR and TAF weather

Enter ICAO airport designator
Station Type Date Time Source
KIMT METAR 2020/01/24 02:54 UTC NOAA

KIMT 240254Z AUTO 08003KT 7SM OVC007 00/M02 A3008 RMK AO2 SNE53 CIG 006V012 SLP203 P0000 60000 T00001022 55000


Station Type Date Time Source
KIMT Decoded METAR 2020/01/24 02:54 UTC NOAA

IRON MOUNTAIN FORD AIRPORT, MI, United States (KIMT) 45-49N 88-07W 349M
Jan 23, 2020 - 09:54 PM EST / 2020.01.24 0254 UTC
Wind: from the E (080 degrees) at 3 MPH (3 KT):0
Visibility: 7 mile(s):0
Sky conditions: overcast
Precipitation last hour: A trace
Temperature: 32.0 F (0.0 C)
Dew Point: 28.0 F (-2.2 C)
Relative Humidity: 85%
Pressure (altimeter): 30.08 in. Hg (1018 hPa)
Pressure tendency: 0.00 inches (0.0 hPa) lower than three hours ago
ob: KIMT 240254Z AUTO 08003KT 7SM OVC007 00/M02 A3008 RMK AO2 SNE53 CIG 006V012 SLP203 P0000 60000 T00001022 55000
cycle: 3

Station Type Date Time Source
KIMT TAF UTC NOAA

Error!

Example: see airport list